createdAt,value
2022-09-26T00:00:58.026Z,0.00
2022-09-26T00:01:58.024Z,0.00
2022-09-26T00:02:58.084Z,0.00
2022-09-26T00:03:57.896Z,0.00
2022-09-26T00:04:57.857Z,0.00
2022-09-26T00:05:57.829Z,0.00
2022-09-26T00:06:57.791Z,0.00
2022-09-26T00:07:57.757Z,0.00
2022-09-26T00:08:57.806Z,0.00
2022-09-26T00:09:57.704Z,0.00
2022-09-26T00:10:57.668Z,0.00
2022-09-26T00:11:57.628Z,0.00
2022-09-26T00:12:57.598Z,0.00
2022-09-26T00:13:57.569Z,0.00
2022-09-26T00:14:57.590Z,0.00
2022-09-26T00:15:57.502Z,0.00
2022-09-26T00:16:57.553Z,0.00
2022-09-26T00:17:57.440Z,0.00
2022-09-26T00:18:57.410Z,0.00
2022-09-26T00:19:57.371Z,0.00
2022-09-26T00:20:57.404Z,0.00
2022-09-26T00:21:57.313Z,0.00
2022-09-26T00:22:57.279Z,0.00
2022-09-26T00:23:57.242Z,0.00
2022-09-26T00:24:57.274Z,0.00
2022-09-26T00:25:57.187Z,0.00
2022-09-26T00:26:57.210Z,0.00
2022-09-26T00:27:57.123Z,0.00
2022-09-26T00:28:57.083Z,0.00
2022-09-26T00:29:57.053Z,0.00
2022-09-26T00:30:57.118Z,0.00
2022-09-26T00:31:56.992Z,0.00
2022-09-26T00:32:57.016Z,0.00
2022-09-26T00:33:56.924Z,0.00
2022-09-26T00:34:56.892Z,0.00
2022-09-26T00:35:56.858Z,0.00
2022-09-26T00:36:56.836Z,0.00
2022-09-26T00:37:56.794Z,0.00
2022-09-26T00:38:56.881Z,0.00
2022-09-26T00:39:56.738Z,0.00
2022-09-26T00:40:57.004Z,0.00
2022-09-26T00:41:56.669Z,0.00
2022-09-26T00:42:56.634Z,0.00
2022-09-26T00:43:56.601Z,0.00
2022-09-26T00:44:56.629Z,0.00
2022-09-26T00:45:56.615Z,0.00
2022-09-26T00:46:56.502Z,0.00
2022-09-26T00:47:56.474Z,0.00
2022-09-26T00:48:56.445Z,0.00
2022-09-26T00:49:56.407Z,0.00
2022-09-26T00:50:56.430Z,0.00
2022-09-26T00:51:56.347Z,0.00
2022-09-26T00:52:56.370Z,0.00
2022-09-26T00:53:56.281Z,0.00
2022-09-26T00:54:56.254Z,0.00
2022-09-26T00:55:56.215Z,0.00
2022-09-26T00:56:56.185Z,0.00
2022-09-26T00:57:56.160Z,0.00
2022-09-26T00:58:56.174Z,0.00
2022-09-26T00:59:56.085Z,0.00
2022-09-26T01:00:56.111Z,0.00
2022-09-26T01:01:56.147Z,0.00
2022-09-26T01:02:56.093Z,0.00
2022-09-26T01:03:55.949Z,0.00
2022-09-26T01:04:55.974Z,0.00
2022-09-26T01:05:55.898Z,0.00
2022-09-26T01:06:55.853Z,0.00
2022-09-26T01:07:55.823Z,0.00
2022-09-26T01:08:55.793Z,0.00
2022-09-26T01:09:55.758Z,0.00
2022-09-26T01:10:55.787Z,0.00
2022-09-26T01:11:55.737Z,0.00
2022-09-26T01:12:55.722Z,0.00
2022-09-26T01:13:55.632Z,0.00
2022-09-26T01:14:55.600Z,0.00
2022-09-26T01:15:55.561Z,0.00
2022-09-26T01:16:55.754Z,0.00
2022-09-26T01:17:55.500Z,0.00
2022-09-26T01:18:55.473Z,0.00
2022-09-26T01:19:55.435Z,0.00
2022-09-26T01:20:55.458Z,0.00
2022-09-26T01:21:55.366Z,0.00
2022-09-26T01:22:55.339Z,0.00
2022-09-26T01:23:55.305Z,0.00
2022-09-26T01:24:55.268Z,0.00
2022-09-26T01:25:55.293Z,0.00
2022-09-26T01:26:55.213Z,0.00
2022-09-26T01:27:55.222Z,0.00
2022-09-26T01:28:55.141Z,0.00
2022-09-26T01:29:55.115Z,0.00
2022-09-26T01:30:55.146Z,0.00
2022-09-26T01:31:55.048Z,0.00
2022-09-26T01:32:55.075Z,0.00
2022-09-26T01:33:55.104Z,0.00
2022-09-26T01:34:54.956Z,0.00
2022-09-26T01:35:54.925Z,0.00
2022-09-26T01:36:54.912Z,0.00
2022-09-26T01:37:54.858Z,0.00
2022-09-26T01:38:54.834Z,0.00
2022-09-26T01:39:54.844Z,0.00
2022-09-26T01:40:54.828Z,0.00
2022-09-26T01:41:54.722Z,0.00
2022-09-26T01:42:54.883Z,0.00
2022-09-26T01:43:55.039Z,0.00
2022-09-26T01:44:54.816Z,0.00
2022-09-26T01:45:54.736Z,0.00
2022-09-26T01:46:54.645Z,0.00
2022-09-26T01:47:55.324Z,0.00
2022-09-26T01:48:54.573Z,0.00
2022-09-26T01:49:54.503Z,0.00
2022-09-26T01:50:54.436Z,0.00
2022-09-26T01:51:54.527Z,0.00
2022-09-26T01:52:54.382Z,0.00
2022-09-26T01:53:54.342Z,0.00
2022-09-26T01:54:54.377Z,0.00
2022-09-26T01:55:54.276Z,0.00
2022-09-26T01:56:54.250Z,0.00
2022-09-26T01:57:54.282Z,0.00
2022-09-26T01:58:54.177Z,0.00
2022-09-26T01:59:54.150Z,0.00
2022-09-26T02:00:54.142Z,0.00
2022-09-26T02:01:54.122Z,0.00
2022-09-26T02:02:54.101Z,0.00
2022-09-26T02:03:54.027Z,0.00
2022-09-26T02:04:53.992Z,0.00
2022-09-26T02:05:53.955Z,0.00
2022-09-26T02:06:53.917Z,0.00
2022-09-26T02:07:53.949Z,0.00
2022-09-26T02:08:53.860Z,0.00
2022-09-26T02:09:53.894Z,0.00
2022-09-26T02:10:53.792Z,0.00
2022-09-26T02:12:01.683Z,0.00
2022-09-26T02:12:53.732Z,0.00
2022-09-26T02:13:53.694Z,0.00
2022-09-26T02:14:53.662Z,0.00
2022-09-26T02:15:53.640Z,0.00
2022-09-26T02:16:53.684Z,0.00
2022-09-26T02:17:53.628Z,0.00
2022-09-26T02:18:53.535Z,0.00
2022-09-26T02:19:53.566Z,0.00
2022-09-26T02:20:53.500Z,0.00
2022-09-26T02:21:53.438Z,0.00
2022-09-26T02:22:53.403Z,0.00
2022-09-26T02:23:53.442Z,0.00
2022-09-26T02:24:53.340Z,0.00
2022-09-26T02:25:53.304Z,0.00
2022-09-26T02:26:53.269Z,0.00
2022-09-26T02:27:53.244Z,0.00
2022-09-26T02:28:53.215Z,0.00
2022-09-26T02:29:53.258Z,0.00
2022-09-26T02:30:53.156Z,0.00
2022-09-26T02:31:53.287Z,0.00
2022-09-26T02:32:53.095Z,0.00
2022-09-26T02:33:53.052Z,0.00
2022-09-26T02:34:53.074Z,0.00
2022-09-26T02:35:52.988Z,0.00
2022-09-26T02:36:53.018Z,0.00
2022-09-26T02:37:52.924Z,0.00
2022-09-26T02:38:52.897Z,0.00
2022-09-26T02:39:52.858Z,0.00
2022-09-26T02:40:52.896Z,0.00
2022-09-26T02:41:52.804Z,0.00
2022-09-26T02:42:52.830Z,0.00
2022-09-26T02:43:52.728Z,0.00
2022-09-26T02:44:52.692Z,0.00
2022-09-26T02:45:52.745Z,0.00
2022-09-26T02:46:52.637Z,0.00
2022-09-26T02:47:52.601Z,0.00
2022-09-26T02:48:52.627Z,0.00
2022-09-26T02:49:52.531Z,0.00
2022-09-26T02:50:52.512Z,0.00
2022-09-26T02:51:52.466Z,0.00
2022-09-26T02:52:52.449Z,0.00
2022-09-26T02:53:52.479Z,0.00
2022-09-26T02:54:52.386Z,0.00
2022-09-26T02:55:52.354Z,0.00
2022-09-26T02:56:52.342Z,0.00
2022-09-26T02:57:52.292Z,0.00
2022-09-26T02:58:52.250Z,0.00
2022-09-26T02:59:52.273Z,0.00
2022-09-26T03:00:52.235Z,0.00
2022-09-26T03:01:52.151Z,0.00
2022-09-26T03:02:52.135Z,0.00
2022-09-26T03:03:52.084Z,0.00
2022-09-26T03:04:52.187Z,0.00
2022-09-26T03:05:52.082Z,0.00
2022-09-26T03:06:52.001Z,0.00
2022-09-26T03:07:51.966Z,0.00
2022-09-26T03:08:51.921Z,0.00
2022-09-26T03:09:51.893Z,0.00
2022-09-26T03:10:51.861Z,0.00
2022-09-26T03:11:51.889Z,0.00
2022-09-26T03:12:51.791Z,0.00
2022-09-26T03:13:51.760Z,0.00
2022-09-26T03:14:54.195Z,0.00
2022-09-26T03:15:51.696Z,0.00
2022-09-26T03:16:51.781Z,0.00
2022-09-26T03:17:51.628Z,0.00
2022-09-26T03:18:51.597Z,0.00
2022-09-26T03:19:51.569Z,0.00
2022-09-26T03:20:51.544Z,0.00
2022-09-26T03:21:51.500Z,0.00
2022-09-26T03:22:51.518Z,0.00
2022-09-26T03:23:51.433Z,0.00
2022-09-26T03:24:51.412Z,0.00
2022-09-26T03:25:51.374Z,0.00
2022-09-26T03:26:51.399Z,0.00
2022-09-26T03:27:51.321Z,0.00
2022-09-26T03:28:51.268Z,0.00
2022-09-26T03:29:51.256Z,0.00
2022-09-26T03:30:51.213Z,0.00
2022-09-26T03:31:51.211Z,0.00
2022-09-26T03:32:51.196Z,0.00
2022-09-26T03:33:51.116Z,0.00
2022-09-26T03:34:51.077Z,0.00
2022-09-26T03:35:51.048Z,0.00
2022-09-26T03:36:51.100Z,0.00
2022-09-26T03:37:50.983Z,0.00
2022-09-26T03:38:50.947Z,0.00
2022-09-26T03:39:50.913Z,0.00
2022-09-26T03:40:50.934Z,0.00
2022-09-26T03:41:50.909Z,0.00
2022-09-26T03:42:50.811Z,0.00
2022-09-26T03:43:50.791Z,0.00
2022-09-26T03:44:50.749Z,0.00
2022-09-26T03:45:50.866Z,0.00
2022-09-26T03:46:50.769Z,0.00
2022-09-26T03:47:50.655Z,0.00
2022-09-26T03:48:50.617Z,0.00
2022-09-26T03:49:50.598Z,0.00
2022-09-26T03:50:50.550Z,0.00
2022-09-26T03:51:50.517Z,0.00
2022-09-26T03:52:50.557Z,0.00
2022-09-26T03:53:50.453Z,0.00
2022-09-26T03:54:50.428Z,0.00
2022-09-26T03:55:50.391Z,0.00
2022-09-26T03:56:50.361Z,0.00
2022-09-26T03:57:50.336Z,0.00
2022-09-26T03:58:50.345Z,0.00
2022-09-26T03:59:50.272Z,0.00
2022-09-26T04:00:50.283Z,0.00
2022-09-26T04:01:50.234Z,0.00
2022-09-26T04:02:50.165Z,0.00
2022-09-26T04:03:51.107Z,0.00
2022-09-26T04:04:50.150Z,0.00
2022-09-26T04:05:50.066Z,0.00
2022-09-26T04:06:50.031Z,0.00
2022-09-26T04:07:49.996Z,0.00
2022-09-26T04:08:49.974Z,0.00
2022-09-26T04:09:49.995Z,0.00
2022-09-26T04:10:49.896Z,0.00
2022-09-26T04:11:49.885Z,0.00
2022-09-26T04:12:49.830Z,0.00
2022-09-26T04:13:52.929Z,0.00
2022-09-26T04:14:49.775Z,0.00
2022-09-26T04:15:49.796Z,0.00
2022-09-26T04:16:49.754Z,0.00
2022-09-26T04:17:49.679Z,0.00
2022-09-26T04:18:49.686Z,0.00
2022-09-26T04:19:49.601Z,0.00
2022-09-26T04:20:49.567Z,0.00
2022-09-26T04:21:49.585Z,0.00
2022-09-26T04:22:49.507Z,0.00
2022-09-26T04:23:49.529Z,0.00
2022-09-26T04:24:49.464Z,0.00
2022-09-26T04:25:49.398Z,4.00
2022-09-26T04:26:49.364Z,4.00
2022-09-26T04:27:49.339Z,0.00
2022-09-26T04:28:49.299Z,0.00
2022-09-26T04:29:49.321Z,4.00
2022-09-26T04:30:49.232Z,4.00
2022-09-26T04:31:49.258Z,4.00
2022-09-26T04:32:49.178Z,4.00
2022-09-26T04:33:49.136Z,4.00
2022-09-26T04:34:49.159Z,8.00
2022-09-26T04:35:49.072Z,12.00
2022-09-26T04:36:49.032Z,8.00
2022-09-26T04:37:49.018Z,12.00
2022-09-26T04:38:48.968Z,12.00
2022-09-26T04:39:48.938Z,16.00
2022-09-26T04:40:49.005Z,20.00
2022-09-26T04:41:48.876Z,24.00
2022-09-26T04:42:48.834Z,28.00
2022-09-26T04:43:48.826Z,32.00
2022-09-26T04:44:48.819Z,40.00
2022-09-26T04:45:48.788Z,44.00
2022-09-26T04:46:48.757Z,52.00
2022-09-26T04:47:48.671Z,60.00
2022-09-26T04:48:48.631Z,72.00
2022-09-26T04:49:48.600Z,80.00
2022-09-26T04:50:48.572Z,92.00
2022-09-26T04:51:48.535Z,108.00
2022-09-26T04:52:48.568Z,120.00
2022-09-26T04:53:48.541Z,136.00
2022-09-26T04:54:48.427Z,152.00
2022-09-26T04:55:48.406Z,172.00
2022-09-26T04:56:48.360Z,192.00
2022-09-26T04:57:48.329Z,208.00
2022-09-26T04:58:48.347Z,232.00
2022-09-26T04:59:48.261Z,256.00
2022-09-26T05:00:48.301Z,284.00
2022-09-26T05:01:48.280Z,308.00
2022-09-26T05:02:48.165Z,332.00
2022-09-26T05:03:48.244Z,360.00
2022-09-26T05:04:48.100Z,388.00
2022-09-26T05:05:48.057Z,416.00
2022-09-26T05:06:48.023Z,448.00
2022-09-26T05:07:47.995Z,480.00
2022-09-26T05:08:48.021Z,516.00
2022-09-26T05:09:47.983Z,556.00
2022-09-26T05:10:47.893Z,600.00
2022-09-26T05:11:47.855Z,648.00
2022-09-26T05:12:47.822Z,696.00
2022-09-26T05:13:53.070Z,744.00
2022-09-26T05:14:47.757Z,788.00
2022-09-26T05:15:47.778Z,836.00
2022-09-26T05:16:47.739Z,884.00
2022-09-26T05:17:47.656Z,932.00
2022-09-26T05:18:47.700Z,984.00
2022-09-26T05:19:47.590Z,1036.00
2022-09-26T05:20:47.585Z,1092.00
2022-09-26T05:21:47.529Z,1148.00
2022-09-26T05:22:47.487Z,1208.00
2022-09-26T05:23:47.512Z,1268.00
2022-09-26T05:24:47.477Z,1316.00
2022-09-26T05:25:47.392Z,1396.00
2022-09-26T05:26:47.354Z,1500.00
2022-09-26T05:27:47.321Z,1596.00
2022-09-26T05:28:47.280Z,1628.00
2022-09-26T05:29:47.309Z,1640.00
2022-09-26T05:30:47.232Z,1660.00
2022-09-26T05:31:47.267Z,1700.00
2022-09-26T05:32:47.168Z,1748.00
2022-09-26T05:33:47.117Z,1804.00
2022-09-26T05:34:47.082Z,1856.00
2022-09-26T05:35:47.112Z,1892.00
2022-09-26T05:36:47.073Z,1924.00
2022-09-26T05:37:46.979Z,1960.00
2022-09-26T05:38:46.967Z,1996.00
2022-09-26T05:39:46.912Z,2020.00
2022-09-26T05:40:47.017Z,2044.00
2022-09-26T05:41:46.923Z,2068.00
2022-09-26T05:42:47.376Z,2132.00
2022-09-26T05:43:46.786Z,2176.00
2022-09-26T05:44:46.750Z,2224.00
2022-09-26T05:45:46.714Z,2268.00
2022-09-26T05:46:46.761Z,2312.00
2022-09-26T05:47:46.706Z,2356.00
2022-09-26T05:48:46.611Z,2396.00
2022-09-26T05:49:46.578Z,2440.00
2022-09-26T05:50:46.549Z,2480.00
2022-09-26T05:51:46.591Z,2524.00
2022-09-26T05:52:46.483Z,2552.00
2022-09-26T05:53:46.526Z,2576.00
2022-09-26T05:54:46.516Z,2592.00
2022-09-26T05:55:46.380Z,2608.00
2022-09-26T05:56:46.344Z,2620.00
2022-09-26T05:57:46.310Z,2636.00
2022-09-26T05:58:46.287Z,2664.00
2022-09-26T05:59:46.246Z,2700.00
2022-09-26T06:00:46.314Z,2732.00
2022-09-26T06:01:46.192Z,2764.00
2022-09-26T06:02:46.210Z,2776.00
2022-09-26T06:03:46.151Z,2800.00
2022-09-26T06:04:46.074Z,2824.00
2022-09-26T06:05:46.107Z,2852.00
2022-09-26T06:06:46.007Z,2876.00
2022-09-26T06:07:46.483Z,2904.00
2022-09-26T06:08:45.947Z,2924.00
2022-09-26T06:09:45.908Z,2944.00
2022-09-26T06:10:45.874Z,2972.00
2022-09-26T06:11:45.923Z,3012.00
2022-09-26T06:12:50.130Z,3052.00
2022-09-26T06:13:45.984Z,3072.00
2022-09-26T06:14:45.746Z,3096.00
2022-09-26T06:15:45.711Z,3120.00
2022-09-26T06:16:45.740Z,3160.00
2022-09-26T06:17:45.709Z,3200.00
2022-09-26T06:18:45.612Z,3232.00
2022-09-26T06:19:45.577Z,3268.00
2022-09-26T06:20:45.544Z,3312.00
2022-09-26T06:21:45.557Z,3344.00
2022-09-26T06:22:45.548Z,3384.00
2022-09-26T06:23:45.462Z,3444.00
2022-09-26T06:24:45.414Z,3496.00
2022-09-26T06:25:45.385Z,3556.00
2022-09-26T06:26:45.346Z,3620.00
2022-09-26T06:27:45.315Z,3700.00
2022-09-26T06:28:45.331Z,3788.00
2022-09-26T06:29:45.248Z,3880.00
2022-09-26T06:30:45.209Z,3972.00
2022-09-26T06:31:45.226Z,4052.00
2022-09-26T06:32:45.156Z,4140.00
2022-09-26T06:33:45.116Z,4212.00
2022-09-26T06:34:45.129Z,4288.00
2022-09-26T06:35:45.052Z,4352.00
2022-09-26T06:36:45.017Z,4420.00
2022-09-26T06:37:44.983Z,4476.00
2022-09-26T06:38:44.950Z,4528.00
2022-09-26T06:39:44.977Z,4576.00
2022-09-26T06:40:44.952Z,4616.00
2022-09-26T06:41:44.858Z,4660.00
2022-09-26T06:42:44.818Z,4696.00
2022-09-26T06:43:44.788Z,4720.00
2022-09-26T06:44:44.832Z,4736.00
2022-09-26T06:45:44.781Z,4732.00
2022-09-26T06:46:44.746Z,4720.00
2022-09-26T06:47:44.660Z,4696.00
2022-09-26T06:48:44.630Z,4672.00
2022-09-26T06:49:44.655Z,4636.00
2022-09-26T06:50:44.569Z,4592.00
2022-09-26T06:51:44.524Z,4524.00
2022-09-26T06:52:44.503Z,4508.00
2022-09-26T06:53:44.473Z,4476.00
2022-09-26T06:54:44.432Z,4420.00
2022-09-26T06:55:44.468Z,4364.00
2022-09-26T06:56:44.371Z,4312.00
2022-09-26T06:57:44.337Z,4252.00
2022-09-26T06:58:44.301Z,4224.00
2022-09-26T06:59:44.271Z,4168.00
2022-09-26T07:00:45.154Z,4136.00
2022-09-26T07:01:44.406Z,4092.00
2022-09-26T07:02:44.178Z,4052.00
2022-09-26T07:03:45.876Z,4004.00
2022-09-26T07:04:44.112Z,3968.00
2022-09-26T07:05:44.078Z,3944.00
2022-09-26T07:06:44.042Z,3924.00
2022-09-26T07:07:44.067Z,3904.00
2022-09-26T07:09:01.419Z,3892.00
2022-09-26T07:09:43.957Z,3876.00
2022-09-26T07:10:43.921Z,3872.00
2022-09-26T07:12:09.972Z,3848.00
2022-09-26T07:12:43.900Z,3832.00
2022-09-26T07:13:43.818Z,3816.00
2022-09-26T07:14:43.806Z,3796.00
2022-09-26T07:15:43.780Z,3796.00
2022-09-26T07:16:43.741Z,3772.00
2022-09-26T07:17:43.756Z,3752.00
2022-09-26T07:18:43.664Z,3732.00
2022-09-26T07:19:43.629Z,3700.00
2022-09-26T07:20:43.596Z,3656.00
2022-09-26T07:21:43.560Z,3620.00
2022-09-26T07:22:43.595Z,3596.00
2022-09-26T07:23:43.507Z,3576.00
2022-09-26T07:24:43.466Z,3560.00
2022-09-26T07:25:43.440Z,3548.00
2022-09-26T07:26:43.404Z,3528.00
2022-09-26T07:27:44.404Z,3536.00
2022-09-26T07:28:43.341Z,3556.00
2022-09-26T07:29:43.324Z,3560.00
2022-09-26T07:30:43.280Z,3544.00
2022-09-26T07:31:43.307Z,3560.00
2022-09-26T07:32:43.214Z,3564.00
2022-09-26T07:33:43.247Z,3580.00
2022-09-26T07:34:43.151Z,3600.00
2022-09-26T07:35:43.141Z,3612.00
2022-09-26T07:36:43.143Z,3632.00
2022-09-26T07:37:43.127Z,3636.00
2022-09-26T07:38:43.024Z,3636.00
2022-09-26T07:39:42.991Z,3640.00
2022-09-26T07:40:43.051Z,3644.00
2022-09-26T07:41:43.009Z,3652.00
2022-09-26T07:42:47.797Z,3644.00
2022-09-26T07:44:34.715Z,3648.00
2022-09-26T07:45:42.799Z,3640.00
2022-09-26T07:46:42.864Z,3648.00
2022-09-26T07:47:42.804Z,3664.00
2022-09-26T07:48:42.700Z,3668.00
2022-09-26T07:49:42.678Z,3680.00
2022-09-26T07:50:42.772Z,3692.00
2022-09-26T07:51:42.646Z,3700.00
2022-09-26T07:52:42.646Z,3712.00
2022-09-26T07:53:42.622Z,3720.00
2022-09-26T07:54:42.521Z,3732.00
2022-09-26T07:55:42.491Z,3736.00
2022-09-26T07:56:42.448Z,3736.00
2022-09-26T07:57:42.477Z,3736.00
2022-09-26T07:58:42.407Z,3748.00
2022-09-26T07:59:42.375Z,3776.00
2022-09-26T08:00:42.397Z,3800.00
2022-09-26T08:01:42.417Z,3820.00
2022-09-26T08:02:42.475Z,3844.00
2022-09-26T08:03:42.298Z,3868.00
2022-09-26T08:04:42.196Z,3896.00
2022-09-26T08:05:42.218Z,3928.00
2022-09-26T08:06:42.144Z,3976.00
2022-09-26T08:07:42.339Z,4012.00
2022-09-26T08:08:42.130Z,4032.00
2022-09-26T08:09:42.112Z,4080.00
2022-09-26T08:10:42.125Z,4216.00
2022-09-26T08:11:42.039Z,4596.00
2022-09-26T08:12:41.949Z,4888.00
2022-09-26T08:13:41.915Z,4956.00
2022-09-26T08:14:41.878Z,4868.00
2022-09-26T08:15:41.928Z,4732.00
2022-09-26T08:16:41.828Z,4536.00
2022-09-26T08:17:41.854Z,4408.00
2022-09-26T08:18:41.824Z,4328.00
2022-09-26T08:19:41.727Z,4268.00
2022-09-26T08:20:41.701Z,4240.00
2022-09-26T08:21:41.768Z,4224.00
2022-09-26T08:22:41.640Z,4216.00
2022-09-26T08:23:41.656Z,4212.00
2022-09-26T08:24:41.569Z,4208.00
2022-09-26T08:25:41.537Z,4188.00
2022-09-26T08:26:44.363Z,4176.00
2022-09-26T08:27:41.482Z,4156.00
2022-09-26T08:28:41.511Z,4136.00
2022-09-26T08:29:41.414Z,4124.00
2022-09-26T08:30:41.382Z,4124.00
2022-09-26T08:31:41.523Z,4108.00
2022-09-26T08:32:41.326Z,4108.00
2022-09-26T08:33:41.288Z,4076.00
2022-09-26T08:34:41.320Z,4048.00
2022-09-26T08:35:41.223Z,4016.00
2022-09-26T08:36:41.194Z,4004.00
2022-09-26T08:37:41.164Z,3988.00
2022-09-26T08:38:41.134Z,3988.00
2022-09-26T08:39:41.172Z,4028.00
2022-09-26T08:40:41.108Z,4016.00
2022-09-26T08:41:41.055Z,3980.00
2022-09-26T08:42:41.015Z,3944.00
2022-09-26T08:43:40.979Z,3908.00
2022-09-26T08:44:41.029Z,3876.00
2022-09-26T08:45:45.239Z,3844.00
2022-09-26T08:46:40.910Z,3824.00
2022-09-26T08:47:40.855Z,3816.00
2022-09-26T08:48:40.827Z,3812.00
2022-09-26T08:49:40.793Z,3804.00
2022-09-26T08:50:40.769Z,3812.00
2022-09-26T08:51:40.785Z,3824.00
2022-09-26T08:52:40.702Z,3828.00
2022-09-26T08:53:40.676Z,3832.00
2022-09-26T08:54:40.652Z,3832.00
2022-09-26T08:55:40.610Z,3844.00
2022-09-26T08:56:40.647Z,4068.00
2022-09-26T08:57:40.551Z,4328.00
2022-09-26T08:58:40.514Z,4092.00
2022-09-26T08:59:40.487Z,4072.00
2022-09-26T09:00:40.456Z,4068.00
2022-09-26T09:01:40.483Z,4396.00
2022-09-26T09:02:40.625Z,4904.00
2022-09-26T09:03:40.356Z,5776.00
2022-09-26T09:04:40.328Z,6204.00
2022-09-26T09:05:40.304Z,6832.00
2022-09-26T09:06:40.269Z,7388.00
2022-09-26T09:07:40.235Z,8136.00
2022-09-26T09:08:40.271Z,7344.00
2022-09-26T09:09:40.178Z,6668.00
2022-09-26T09:10:40.143Z,6196.00
2022-09-26T09:11:40.117Z,4964.00
2022-09-26T09:12:40.093Z,4560.00
2022-09-26T09:13:40.057Z,4256.00
2022-09-26T09:14:40.071Z,4120.00
2022-09-26T09:15:40.037Z,4152.00
2022-09-26T09:16:39.967Z,4056.00
2022-09-26T09:17:39.935Z,4072.00
2022-09-26T09:18:39.902Z,4196.00
2022-09-26T09:19:39.936Z,4312.00
2022-09-26T09:20:39.845Z,4504.00
2022-09-26T09:21:41.980Z,4736.00
2022-09-26T09:22:39.805Z,5000.00
2022-09-26T09:23:39.759Z,5060.00
2022-09-26T09:24:39.728Z,4908.00
2022-09-26T09:25:39.742Z,4968.00
2022-09-26T09:27:55.252Z,5408.00
2022-09-26T09:28:39.600Z,5628.00
2022-09-26T09:29:39.565Z,5592.00
2022-09-26T09:30:39.606Z,5620.00
2022-09-26T09:31:39.591Z,5776.00
2022-09-26T09:32:39.484Z,6376.00
2022-09-26T09:33:39.460Z,7796.00
2022-09-26T09:34:39.418Z,9520.00
2022-09-26T09:35:39.409Z,10108.00
2022-09-26T09:36:39.419Z,9608.00
2022-09-26T09:37:39.329Z,9216.00
2022-09-26T09:38:39.307Z,9192.00
2022-09-26T09:39:39.270Z,10068.00
2022-09-26T09:40:39.337Z,11256.00
2022-09-26T09:41:39.224Z,10956.00
2022-09-26T09:42:39.245Z,10100.00
2022-09-26T09:43:39.163Z,8708.00
2022-09-26T09:44:43.055Z,7660.00
2022-09-26T09:45:39.103Z,7580.00
2022-09-26T09:46:39.228Z,8156.00
2022-09-26T09:47:39.050Z,7772.00
2022-09-26T09:48:39.079Z,7048.00
2022-09-26T09:49:38.987Z,6560.00
2022-09-26T09:50:38.964Z,7472.00
2022-09-26T09:51:39.638Z,9712.00
2022-09-26T09:52:38.893Z,10920.00
2022-09-26T09:53:38.863Z,11404.00
2022-09-26T09:54:38.899Z,11016.00
2022-09-26T09:55:38.816Z,10952.00
2022-09-26T09:56:38.781Z,10264.00
2022-09-26T09:57:38.756Z,10680.00
2022-09-26T09:58:38.784Z,11448.00
2022-09-26T09:59:38.697Z,11692.00
2022-09-26T10:00:38.669Z,11684.00
2022-09-26T10:01:38.643Z,11480.00
2022-09-26T10:02:38.724Z,10756.00
2022-09-26T10:03:38.587Z,9776.00
2022-09-26T10:04:38.631Z,8548.00
2022-09-26T10:05:38.531Z,7500.00
2022-09-26T10:06:45.417Z,6616.00
2022-09-26T10:07:38.481Z,6048.00
2022-09-26T10:08:38.450Z,5760.00
2022-09-26T10:09:39.857Z,5544.00
2022-09-26T10:10:38.532Z,5360.00
2022-09-26T10:11:38.459Z,5208.00
2022-09-26T10:12:38.332Z,5088.00
2022-09-26T10:13:38.320Z,5212.00
2022-09-26T10:14:38.276Z,5852.00
2022-09-26T10:15:38.347Z,6508.00
2022-09-26T10:16:38.229Z,7220.00
2022-09-26T10:17:38.198Z,7980.00
2022-09-26T10:18:38.167Z,8732.00
2022-09-26T10:19:38.136Z,9312.00
2022-09-26T10:20:38.112Z,10140.00
2022-09-26T10:21:38.633Z,11016.00
2022-09-26T10:22:38.066Z,11248.00
2022-09-26T10:23:38.027Z,10996.00
2022-09-26T10:24:38.002Z,10556.00
2022-09-26T10:25:37.994Z,10092.00
2022-09-26T10:26:38.008Z,9404.00
2022-09-26T10:27:37.990Z,8508.00
2022-09-26T10:28:37.907Z,8096.00
2022-09-26T10:29:38.655Z,7764.00
2022-09-26T10:30:37.835Z,7036.00
2022-09-26T10:31:42.699Z,5960.00
2022-09-26T10:32:38.133Z,4900.00
2022-09-26T10:33:37.753Z,4944.00
2022-09-26T10:34:37.728Z,5708.00
2022-09-26T10:35:37.704Z,7204.00
2022-09-26T10:36:37.671Z,9276.00
2022-09-26T10:37:37.642Z,11048.00
2022-09-26T10:38:37.670Z,12628.00
2022-09-26T10:39:38.132Z,13280.00
2022-09-26T10:40:40.498Z,13048.00
2022-09-26T10:41:38.067Z,12244.00
2022-09-26T10:42:37.504Z,11672.00
2022-09-26T10:43:37.479Z,11604.00
2022-09-26T10:44:37.450Z,11388.00
2022-09-26T10:45:37.483Z,11640.00
2022-09-26T10:46:37.452Z,11904.00
2022-09-26T10:47:37.371Z,12408.00
2022-09-26T10:48:37.342Z,12700.00
2022-09-26T10:49:37.328Z,13064.00
2022-09-26T10:50:37.290Z,13520.00
2022-09-26T10:51:37.329Z,12676.00
2022-09-26T10:52:37.256Z,11672.00
2022-09-26T10:53:37.216Z,10940.00
2022-09-26T10:54:37.181Z,11548.00
2022-09-26T10:55:37.156Z,12896.00
2022-09-26T10:56:37.131Z,14096.00
2022-09-26T10:57:37.163Z,14704.00
2022-09-26T10:58:37.193Z,15504.00
2022-09-26T10:59:37.050Z,14856.00
2022-09-26T11:00:37.022Z,12620.00
2022-09-26T11:01:37.045Z,10832.00
2022-09-26T11:02:36.971Z,9700.00
2022-09-26T11:03:37.060Z,8980.00
2022-09-26T11:04:36.929Z,8792.00
2022-09-26T11:05:36.886Z,9232.00
2022-09-26T11:06:36.867Z,9840.00
2022-09-26T11:07:36.846Z,10688.00
2022-09-26T11:08:36.813Z,11008.00
2022-09-26T11:09:36.853Z,10880.00
2022-09-26T11:10:36.760Z,10360.00
2022-09-26T11:11:36.734Z,9848.00
2022-09-26T11:12:36.707Z,10364.00
2022-09-26T11:13:36.683Z,11024.00
2022-09-26T11:14:36.667Z,11344.00
2022-09-26T11:15:36.730Z,11688.00
2022-09-26T11:16:37.464Z,11744.00
2022-09-26T11:17:36.578Z,11824.00
2022-09-26T11:18:36.552Z,11772.00
2022-09-26T11:19:36.529Z,11636.00
2022-09-26T11:20:36.558Z,11720.00
2022-09-26T11:21:36.470Z,11612.00
2022-09-26T11:22:36.450Z,10552.00
2022-09-26T11:23:36.418Z,8920.00
2022-09-26T11:24:36.398Z,7444.00
2022-09-26T11:25:36.366Z,6276.00
2022-09-26T11:26:36.398Z,5388.00
2022-09-26T11:27:36.376Z,5088.00
2022-09-26T11:28:36.284Z,5208.00
2022-09-26T11:29:36.272Z,6176.00
2022-09-26T11:30:36.237Z,6272.00
2022-09-26T11:31:36.267Z,6852.00
2022-09-26T11:32:36.193Z,7932.00
2022-09-26T11:33:36.201Z,9188.00
2022-09-26T11:34:36.125Z,11076.00
2022-09-26T11:35:36.095Z,9304.00
2022-09-26T11:36:36.078Z,7180.00
2022-09-26T11:37:36.047Z,5912.00
2022-09-26T11:38:36.079Z,5492.00
2022-09-26T11:39:35.996Z,5076.00
2022-09-26T11:40:36.114Z,4884.00
2022-09-26T11:41:35.944Z,4820.00
2022-09-26T11:42:35.912Z,4636.00
2022-09-26T11:43:35.885Z,4472.00
2022-09-26T11:44:35.924Z,4388.00
2022-09-26T11:45:39.920Z,4284.00
2022-09-26T11:46:35.894Z,4444.00
2022-09-26T11:47:35.828Z,5256.00
2022-09-26T11:48:35.764Z,6516.00
2022-09-26T11:49:36.177Z,7716.00
2022-09-26T11:50:35.814Z,9088.00
2022-09-26T11:51:35.741Z,10028.00
2022-09-26T11:52:35.667Z,10412.00
2022-09-26T11:53:35.612Z,10660.00
2022-09-26T11:54:35.580Z,11148.00
2022-09-26T11:55:35.639Z,11404.00
2022-09-26T11:56:35.535Z,11224.00
2022-09-26T11:57:35.507Z,11236.00
2022-09-26T11:58:35.471Z,10740.00
2022-09-26T11:59:35.444Z,10112.00
2022-09-26T12:00:35.422Z,9452.00
2022-09-26T12:01:35.444Z,8560.00
2022-09-26T12:02:35.460Z,7620.00
2022-09-26T12:03:35.438Z,6944.00
2022-09-26T12:04:35.308Z,6368.00
2022-09-26T12:05:35.336Z,5816.00
2022-09-26T12:06:35.275Z,5268.00
2022-09-26T12:07:35.227Z,4516.00
2022-09-26T12:08:35.242Z,4016.00
2022-09-26T12:09:35.240Z,3912.00
2022-09-26T12:10:35.211Z,4000.00
2022-09-26T12:11:35.116Z,4144.00
2022-09-26T12:12:40.280Z,4588.00
2022-09-26T12:13:35.064Z,5296.00
2022-09-26T12:14:35.031Z,5708.00
2022-09-26T12:15:35.072Z,6536.00
2022-09-26T12:16:35.036Z,7436.00
2022-09-26T12:17:34.948Z,8176.00
2022-09-26T12:18:34.947Z,8716.00
2022-09-26T12:19:34.891Z,9116.00
2022-09-26T12:20:34.863Z,9656.00
2022-09-26T12:21:34.892Z,10224.00
2022-09-26T12:22:34.809Z,10756.00
2022-09-26T12:23:34.845Z,11240.00
2022-09-26T12:24:34.758Z,11672.00
2022-09-26T12:25:34.736Z,11796.00
2022-09-26T12:26:34.713Z,11728.00
2022-09-26T12:27:34.679Z,11492.00
2022-09-26T12:28:34.645Z,11256.00
2022-09-26T12:29:34.683Z,10464.00
2022-09-26T12:30:34.585Z,9996.00
2022-09-26T12:31:34.671Z,9960.00
2022-09-26T12:32:34.535Z,9996.00